Time;durP1;ratioP1;P1;durP2;ratioP2;P2;SDS_P1;SDS_P2;PMS_P1;PMS_P2;Temp;Humidity;BMP_temperature;BMP_pressure;BME280_temperature;BME280_humidity;BME280_pressure;Samples;Min_cycle;Max_cycle;Signal;HPM_P1;HPM_P2
2022/08/30 00:03:16;;;;;;;20.37;14.63;;;;;;;13.21;74.38;97590.28;1792792;80;27629;-77
2022/08/30 00:05:44;;;;;;;20.12;15.70;;;;;;;13.19;74.21;97596.97;1793000;80;26130;-81
2022/08/30 00:08:12;;;;;;;19.67;15.45;;;;;;;13.16;74.24;97599.59;1793160;79;25905;-80
2022/08/30 00:10:40;;;;;;;17.87;14.63;;;;;;;13.12;74.23;97602.96;1757965;81;25746;-77
2022/08/30 00:13:09;;;;;;;18.73;15.53;;;;;;;13.11;74.19;97601.30;1757919;81;25722;-76
2022/08/30 00:15:36;;;;;;;21.55;15.18;;;;;;;13.07;74.20;97607.68;1743942;82;27393;-78
2022/08/30 00:18:02;;;;;;;23.45;16.42;;;;;;;13.04;74.16;97604.61;1744058;82;25727;-79
2022/08/30 00:20:32;;;;;;;21.48;15.55;;;;;;;13.00;74.24;97609.63;1744104;82;25716;-78
2022/08/30 00:23:00;;;;;;;18.75;15.05;;;;;;;12.93;74.35;97614.27;1743992;82;25759;-80
2022/08/30 00:25:27;;;;;;;17.50;15.63;;;;;;;12.90;74.40;97614.73;1743838;82;26514;-78
2022/08/30 00:27:54;;;;;;;19.80;14.47;;;;;;;12.89;74.37;97619.84;1744122;82;27377;-81
2022/08/30 00:30:21;;;;;;;16.27;13.83;;;;;;;12.87;74.32;97615.99;1743925;82;26455;-79
2022/08/30 00:32:48;;;;;;;19.17;14.80;;;;;;;12.84;74.35;97615.59;1744103;82;25700;-77
2022/08/30 00:35:19;;;;;;;18.82;14.47;;;;;;;12.80;74.26;97607.63;1743991;82;25663;-78
2022/08/30 00:37:47;;;;;;;17.15;13.83;;;;;;;12.74;74.37;97603.07;1735098;81;25270;-77
2022/08/30 00:40:15;;;;;;;20.75;14.35;;;;;;;12.72;74.36;97609.23;1727914;81;28275;-78
2022/08/30 00:42:43;;;;;;;20.68;14.10;;;;;;;12.69;74.32;97602.89;1752411;81;25755;-79
2022/08/30 00:45:16;;;;;;;17.87;14.03;;;;;;;12.65;74.38;97598.98;1752559;81;25787;-78
2022/08/30 00:47:43;;;;;;;17.12;14.07;;;;;;;12.65;74.38;97601.69;1650325;86;25847;-78
2022/08/30 00:50:12;;;;;;;15.72;13.78;;;;;;;12.61;74.34;97599.94;1650333;86;25826;-77
2022/08/30 00:52:43;;;;;;;19.40;14.18;;;;;;;12.59;74.34;97606.09;1652816;86;27391;-79
2022/08/30 00:55:13;;;;;;;22.10;15.53;;;;;;;12.54;74.34;97614.06;1617811;87;25858;-81
2022/08/30 00:57:43;;;;;;;18.17;14.75;;;;;;;12.43;74.54;97616.11;1622059;88;25894;-79
2022/08/30 01:00:12;;;;;;;21.37;15.88;;;;;;;12.41;75.01;97614.14;1649197;85;25748;-79
2022/08/30 01:02:39;;;;;;;24.00;15.95;;;;;;;12.44;75.22;97611.80;1616676;87;25859;-78
2022/08/30 01:05:09;;;;;;;24.43;17.52;;;;;;;12.47;75.46;97610.02;1633271;85;28114;-79
2022/08/30 01:07:38;;;;;;;19.95;14.93;;;;;;;12.51;75.64;97601.78;1678480;84;25486;-77
2022/08/30 01:10:08;;;;;;;30.85;17.35;;;;;;;12.55;75.77;97605.72;1676198;84;25819;-80
2022/08/30 01:12:38;;;;;;;26.87;16.65;;;;;;;12.58;75.79;97607.97;1667872;84;25798;-80
2022/08/30 01:15:06;;;;;;;23.52;16.00;;;;;;;12.59;75.82;97608.27;1675676;85;25848;-77
2022/08/30 01:17:33;;;;;;;23.07;16.42;;;;;;;12.61;75.89;97606.18;1683564;84;28400;-81
2022/08/30 01:20:08;;;;;;;33.55;16.95;;;;;;;12.60;75.95;97601.81;1683454;85;25308;-78
2022/08/30 01:22:52;;;;;;;22.50;15.72;;;;;;;12.60;76.02;97603.69;1683385;85;26000;-77
2022/08/30 01:25:23;;;;;;;21.48;15.53;;;;;;;12.60;76.15;97604.52;1674002;84;25853;-80
2022/08/30 01:28:01;;;;;;;25.00;17.10;;;;;;;12.59;76.13;97611.50;1585162;90;25846;-78
2022/08/30 01:30:31;;;;;;;21.40;15.85;;;;;;;12.57;76.19;97600.89;1584107;90;27551;-80
2022/08/30 01:33:03;;;;;;;26.15;16.62;;;;;;;12.57;76.25;97600.89;1584948;88;25922;-78
2022/08/30 01:35:37;;;;;;;;;;;;;;;12.57;76.31;97603.59;1587308;88;25835;-80
2022/08/30 01:38:04;;;;;;;18.02;13.60;;;;;;;12.58;76.56;97602.55;1601729;89;25901;-78
2022/08/30 01:40:30;;;;;;;17.80;15.23;;;;;;;12.56;76.41;97598.39;1578989;90;25770;-78
2022/08/30 01:42:57;;;;;;;22.10;15.83;;;;;;;12.55;76.46;97600.30;1579195;89;27433;-78
2022/08/30 01:45:24;;;;;;;20.70;16.07;;;;;;;12.56;76.47;97605.16;1630377;87;25816;-76
2022/08/30 01:47:50;;;;;;;28.05;16.00;;;;;;;12.55;76.51;97605.72;1637606;87;25734;-79
2022/08/30 01:50:17;;;;;;;18.23;14.53;;;;;;;12.57;76.45;97605.47;1637704;85;26490;-79
2022/08/30 01:52:44;;;;;;;16.10;13.72;;;;;;;12.54;76.39;97609.47;1637748;85;25524;-77
2022/08/30 01:55:11;;;;;;;19.40;12.28;;;;;;;12.50;76.18;97608.24;1656687;86;27663;-77
2022/08/30 01:57:37;;;;;;;20.62;13.50;;;;;;;12.45;76.04;97601.28;1637776;85;25761;-79
2022/08/30 02:00:08;;;;;;;17.55;13.68;;;;;;;12.41;76.01;97604.14;1637940;85;25837;-79
2022/08/30 02:02:34;;;;;;;17.42;13.53;;;;;;;12.38;75.96;97603.73;1637500;85;25737;-78
2022/08/30 02:05:02;;;;;;;16.60;13.05;;;;;;;12.35;76.02;97605.00;1654345;84;25790;-77
2022/08/30 02:07:28;;;;;;;19.30;13.00;;;;;;;12.31;76.00;97602.44;1640132;85;27488;-77
2022/08/30 02:09:55;;;;;;;19.70;13.50;;;;;;;12.28;76.06;97597.98;1651585;84;25763;-78
2022/08/30 02:12:22;;;;;;;18.30;12.68;;;;;;;12.27;76.15;97602.56;1642673;85;25782;-77
2022/08/30 02:14:48;;;;;;;17.55;13.72;;;;;;;12.27;76.19;97597.14;1637795;85;25942;-80
2022/08/30 02:17:18;;;;;;;23.92;14.75;;;;;;;12.26;76.22;97598.19;1637745;86;26098;-79
2022/08/30 02:19:45;;;;;;;22.67;15.13;;;;;;;12.23;76.31;97598.62;1638108;85;26878;-78
2022/08/30 02:22:12;;;;;;;22.52;14.85;;;;;;;12.21;76.47;97593.94;1643872;85;25792;-80
2022/08/30 02:24:39;;;;;;;37.30;14.60;;;;;;;12.19;76.62;97596.89;1684949;83;25724;-78
2022/08/30 02:27:06;;;;;;;20.82;14.15;;;;;;;12.20;76.67;97598.52;1706278;83;25741;-76
2022/08/30 02:29:33;;;;;;;26.87;14.15;;;;;;;12.20;76.77;97600.39;1689041;83;25892;-78
2022/08/30 02:31:59;;;;;;;23.35;14.55;;;;;;;12.18;76.91;97595.75;1722764;82;27706;-79
2022/08/30 02:34:26;;;;;;;20.90;13.70;;;;;;;12.16;76.98;97599.19;1724526;80;25821;-78
2022/08/30 02:36:52;;;;;;;16.82;12.90;;;;;;;12.15;77.04;97596.17;1755011;81;25691;-78
2022/08/30 02:39:19;;;;;;;15.70;13.00;;;;;;;12.10;77.08;97597.33;1755073;81;25758;-78
2022/08/30 02:41:46;;;;;;;15.90;12.40;;;;;;;12.03;77.18;97591.14;1755100;81;25636;-78
2022/08/30 02:44:13;;;;;;;14.45;11.22;;;;;;;12.01;77.14;97594.05;1754851;81;27467;-78
2022/08/30 02:46:40;;;;;;;15.83;11.50;;;;;;;12.01;76.88;97591.87;1754683;80;25627;-79
2022/08/30 02:49:07;;;;;;;13.20;11.40;;;;;;;11.99;76.80;97586.67;1742028;80;25706;-77
2022/08/30 02:51:35;;;;;;;15.28;12.00;;;;;;;11.95;76.74;97584.11;1746785;80;25734;-77
2022/08/30 02:54:01;;;;;;;18.25;13.78;;;;;;;11.92;76.72;97585.05;1735074;81;25698;-78
2022/08/30 02:56:28;;;;;;;17.32;13.08;;;;;;;11.92;76.80;97578.30;1755030;81;27348;-78
2022/08/30 02:58:55;;;;;;;19.37;15.95;;;;;;;11.90;76.71;97583.39;1755014;81;25810;-77
2022/08/30 03:01:21;;;;;;;25.02;20.32;;;;;;;11.89;76.71;97577.67;1754684;81;25678;-79
2022/08/30 03:03:49;;;;;;;28.38;24.05;;;;;;;11.87;76.77;97578.41;1754907;81;25978;-78
2022/08/30 03:06:17;;;;;;;24.80;20.97;;;;;;;11.87;76.87;97574.35;1754983;81;25727;-80
2022/08/30 03:08:44;;;;;;;17.67;14.90;;;;;;;11.86;76.87;97576.75;1755028;81;27426;-79
2022/08/30 03:11:12;;;;;;;18.50;13.60;;;;;;;11.85;76.83;97579.14;1754694;80;25720;-78
2022/08/30 03:13:39;;;;;;;15.70;12.90;;;;;;;11.81;76.89;97580.64;1755176;81;26745;-80
2022/08/30 03:16:06;;;;;;;15.08;11.85;;;;;;;11.80;76.95;97583.03;1754725;81;25731;-78
2022/08/30 03:18:33;;;;;;;15.85;12.20;;;;;;;11.81;76.92;97595.51;1754996;81;25678;-78
2022/08/30 03:20:59;;;;;;;14.93;12.23;;;;;;;11.78;77.00;97593.23;1755177;80;27345;-77
2022/08/30 03:23:26;;;;;;;19.27;12.73;;;;;;;11.78;77.04;97595.94;1754747;80;25643;-78
2022/08/30 03:25:53;;;;;;;15.05;12.53;;;;;;;11.79;77.13;97588.65;1752356;81;25751;-77
2022/08/30 03:28:19;;;;;;;17.15;12.63;;;;;;;11.79;77.22;97592.19;1737026;81;25668;-78
2022/08/30 03:30:46;;;;;;;17.00;12.28;;;;;;;11.78;77.34;97594.58;1754978;81;25731;-77
2022/08/30 03:33:13;;;;;;;15.65;11.63;;;;;;;11.79;77.39;97589.48;1752295;81;27362;-79
2022/08/30 03:35:40;;;;;;;26.02;12.43;;;;;;;11.75;77.43;97590.94;1743766;81;25823;-79
2022/08/30 03:38:06;;;;;;;16.35;12.03;;;;;;;11.72;77.46;97589.15;1725257;81;25672;-77
2022/08/30 03:40:34;;;;;;;29.02;11.48;;;;;;;11.67;77.54;97596.57;1724689;81;25729;-78
2022/08/30 03:43:01;;;;;;;24.90;11.68;;;;;;;11.62;77.60;97604.48;1724784;81;25700;-80
2022/08/30 03:45:28;;;;;;;20.45;11.75;;;;;;;11.56;77.68;97606.70;1724571;81;27419;-77
2022/08/30 03:47:54;;;;;;;11.97;10.75;;;;;;;11.48;77.79;97606.39;1724931;81;25474;-78
2022/08/30 03:50:21;;;;;;;26.17;11.55;;;;;;;11.50;78.01;97602.13;1725060;81;25638;-77
2022/08/30 03:52:48;;;;;;;27.48;10.38;;;;;;;11.53;78.11;97605.24;1724954;81;25916;-77
2022/08/30 03:55:15;;;;;;;44.58;10.88;;;;;;;11.55;78.12;97602.33;1724939;80;26643;-79
2022/08/30 03:57:42;;;;;;;15.70;9.78;;;;;;;11.57;78.15;97601.60;1724984;81;27367;-77
2022/08/30 04:00:11;;;;;;;11.48;8.98;;;;;;;11.58;78.20;97608.67;1724807;81;25164;-77
2022/08/30 04:02:39;;;;;;;25.72;9.90;;;;;;;11.53;78.20;97605.77;1724804;81;25694;-77
2022/08/30 04:05:08;;;;;;;12.88;9.75;;;;;;;11.52;78.30;97606.80;1724784;81;25706;-77
2022/08/30 04:07:35;;;;;;;16.00;10.20;;;;;;;11.50;78.29;97612.94;1724972;80;25693;-77
2022/08/30 04:10:04;;;;;;;12.75;10.18;;;;;;;11.51;78.32;97614.08;1724880;81;28357;-76
2022/08/30 04:12:31;;;;;;;11.18;9.30;;;;;;;11.52;78.37;97612.20;1724694;81;25883;-76
2022/08/30 04:14:58;;;;;;;17.82;9.63;;;;;;;11.55;78.34;97615.84;1724687;81;25901;-77
2022/08/30 04:17:25;;;;;;;15.55;10.23;;;;;;;11.59;78.27;97617.61;1724724;81;25814;-76
2022/08/30 04:19:52;;;;;;;23.77;10.20;;;;;;;11.59;78.24;97624.38;1724991;81;25689;-77
2022/08/30 04:22:18;;;;;;;12.60;9.68;;;;;;;11.59;78.24;97630.61;1724837;81;27341;-80
2022/08/30 04:24:45;;;;;;;17.15;9.90;;;;;;;11.60;78.27;97629.54;1724851;81;26386;-77
2022/08/30 04:27:12;;;;;;;21.93;10.60;;;;;;;11.60;78.28;97624.13;1724657;81;25792;-79
2022/08/30 04:29:39;;;;;;;17.05;10.72;;;;;;;11.59;78.27;97629.26;1753066;81;26683;-77
2022/08/30 04:32:05;;;;;;;15.25;11.03;;;;;;;11.58;78.24;97635.70;1755096;81;25436;-77
2022/08/30 04:34:32;;;;;;;21.93;10.48;;;;;;;11.59;78.37;97629.26;1754964;81;26815;-78
2022/08/30 04:36:58;;;;;;;21.70;10.75;;;;;;;11.61;78.30;97636.61;1754851;81;25722;-76
2022/08/30 04:39:25;;;;;;;18.75;10.20;;;;;;;11.62;78.32;97628.81;1755003;81;25786;-77
2022/08/30 04:41:52;;;;;;;13.10;10.75;;;;;;;11.59;78.29;97630.61;1754573;81;25747;-76
2022/08/30 04:44:18;;;;;;;15.95;10.80;;;;;;;11.52;78.31;97632.48;1754826;81;25734;-76
2022/08/30 04:46:45;;;;;;;17.57;11.88;;;;;;;11.54;78.46;97630.41;1755100;81;27975;-77
2022/08/30 04:49:12;;;;;;;16.17;11.88;;;;;;;11.53;78.56;97636.33;1754967;81;25647;-75
2022/08/30 04:51:38;;;;;;;16.05;13.32;;;;;;;11.54;78.54;97638.52;1755019;81;25722;-77
2022/08/30 04:54:05;;;;;;;30.00;13.35;;;;;;;11.56;78.54;97641.84;1754999;81;25723;-77
2022/08/30 04:56:32;;;;;;;18.52;13.60;;;;;;;11.57;78.55;97639.45;1754557;81;25892;-77
2022/08/30 04:58:59;;;;;;;15.58;13.90;;;;;;;11.56;78.61;97640.49;1755032;81;28090;-79
2022/08/30 05:01:29;;;;;;;24.67;13.13;;;;;;;11.59;78.68;97644.65;1754791;81;25243;-78
2022/08/30 05:03:57;;;;;;;18.37;13.90;;;;;;;11.64;78.65;97649.72;1754721;79;25737;-79
2022/08/30 05:06:26;;;;;;;16.75;12.58;;;;;;;11.67;78.61;97647.11;1754998;81;25884;-76
2022/08/30 05:08:54;;;;;;;16.10;12.47;;;;;;;11.69;78.52;97647.73;1754880;80;26623;-76
2022/08/30 05:11:22;;;;;;;21.07;12.28;;;;;;;11.68;78.51;97650.96;1754866;81;27409;-79
2022/08/30 05:13:49;;;;;;;22.70;12.47;;;;;;;11.69;78.58;97639.11;1754801;81;25727;-78
2022/08/30 05:16:18;;;;;;;21.45;12.60;;;;;;;11.73;78.56;97649.78;1754984;81;25671;-78
2022/08/30 05:18:47;;;;;;;18.12;13.90;;;;;;;11.74;78.58;97651.45;1755115;81;25735;-82
2022/08/30 05:21:19;;;;;;;18.57;11.88;;;;;;;11.78;78.66;97650.02;1754675;81;25867;-78
2022/08/30 05:23:46;;;;;;;18.77;12.68;;;;;;;11.82;78.57;97651.27;1754946;81;27423;-82
2022/08/30 05:26:20;;;;;;;18.62;12.03;;;;;;;11.87;78.59;97652.80;1747887;81;25870;-78
2022/08/30 05:28:47;;;;;;;19.92;12.03;;;;;;;11.92;78.34;97658.09;1742780;80;26740;-78
2022/08/30 05:31:25;;;;;;;18.92;13.25;;;;;;;11.92;78.31;97654.03;1755072;81;25761;-78
2022/08/30 05:33:53;;;;;;;19.87;13.28;;;;;;;11.95;78.32;97649.56;1691019;83;25756;-78
2022/08/30 05:36:24;;;;;;;20.02;12.05;;;;;;;11.98;78.36;97656.70;1694629;83;27391;-81
2022/08/30 05:38:50;;;;;;;28.92;12.82;;;;;;;11.95;78.33;97659.03;1694540;83;25752;-79
2022/08/30 05:41:19;;;;;;;18.10;12.05;;;;;;;11.94;78.33;97658.72;1695008;84;25799;-79
2022/08/30 05:43:46;;;;;;;19.37;12.03;;;;;;;11.94;78.39;97669.54;1694942;83;25771;-78
2022/08/30 05:46:18;;;;;;;13.55;10.75;;;;;;;11.92;78.52;97665.69;1694620;83;25771;-79
2022/08/30 05:48:45;;;;;;;17.90;13.40;;;;;;;11.89;78.55;97665.59;1695087;83;27453;-81
2022/08/30 05:51:21;;;;;;;18.75;12.95;;;;;;;11.84;78.57;97661.33;1694717;83;25949;-80
2022/08/30 05:53:50;;;;;;;18.70;12.00;;;;;;;11.84;78.87;97669.44;1694893;83;25845;-79
2022/08/30 05:56:21;;;;;;;17.70;13.00;;;;;;;11.88;78.91;97662.57;1694897;84;25685;-80
2022/08/30 05:58:47;;;;;;;16.23;11.18;;;;;;;11.92;78.99;97665.69;1694857;82;25747;-80
2022/08/30 06:01:33;;;;;;;15.53;11.12;;;;;;;11.98;79.08;97663.98;1694977;83;27362;-82
2022/08/30 06:04:03;;;;;;;16.75;11.65;;;;;;;12.04;79.11;97669.39;1682952;83;25952;-78
2022/08/30 06:06:33;;;;;;;21.48;11.85;;;;;;;12.14;79.31;97668.92;1701861;83;25759;-83
2022/08/30 06:09:00;;;;;;;17.75;11.40;;;;;;;12.22;79.24;97661.91;1700472;83;25794;-80
2022/08/30 06:11:27;;;;;;;16.95;11.65;;;;;;;12.32;79.12;97669.59;1702048;82;25966;-79
2022/08/30 06:13:54;;;;;;;18.07;11.63;;;;;;;12.41;79.19;97669.64;1701897;83;27424;-78
2022/08/30 06:16:25;;;;;;;16.48;11.03;;;;;;;12.48;79.08;97675.31;1701580;82;25784;-82
2022/08/30 06:18:52;;;;;;;14.73;10.95;;;;;;;12.59;79.07;97671.91;1702385;83;25767;-79
2022/08/30 06:21:26;;;;;;;15.75;10.55;;;;;;;12.71;78.93;97675.28;1703197;82;25753;-82
2022/08/30 06:23:54;;;;;;;18.65;10.63;;;;;;;12.77;78.83;97675.25;1666927;86;26611;-79
2022/08/30 06:26:21;;;;;;;14.30;11.10;;;;;;;12.85;78.89;97679.56;1666892;86;27380;-78
2022/08/30 06:28:48;;;;;;;15.18;11.40;;;;;;;12.92;78.77;97682.52;1666894;86;25562;-78
2022/08/30 06:31:18;;;;;;;20.23;10.60;;;;;;;12.97;78.70;97677.81;1672216;85;25911;-79
2022/08/30 06:33:45;;;;;;;17.77;11.45;;;;;;;13.01;78.67;97677.69;1663106;85;26589;-81
2022/08/30 06:36:16;;;;;;;15.23;10.88;;;;;;;13.07;78.68;97674.08;1653845;84;25692;-77
2022/08/30 06:38:44;;;;;;;15.35;11.03;;;;;;;13.16;78.67;97676.84;1676653;84;27393;-81
2022/08/30 06:41:18;;;;;;;14.50;10.90;;;;;;;13.22;78.59;97669.72;1658778;85;26914;-77
2022/08/30 06:43:45;;;;;;;15.78;11.45;;;;;;;13.23;78.40;97671.39;1683216;84;25830;-78
2022/08/30 06:46:19;;;;;;;12.60;10.00;;;;;;;13.22;78.61;97671.91;1660280;84;25870;-78
2022/08/30 06:48:46;;;;;;;14.80;10.93;;;;;;;13.31;78.69;97670.57;1562084;90;26072;-80
2022/08/30 06:51:13;;;;;;;17.10;10.38;;;;;;;13.45;78.78;97670.45;1576495;89;28082;-78
2022/08/30 06:53:40;;;;;;;12.95;10.15;;;;;;;13.55;78.86;97667.53;1561976;89;25681;-81
2022/08/30 06:56:10;;;;;;;13.13;10.68;;;;;;;13.66;78.89;97670.02;1562153;89;25796;-81
2022/08/30 06:58:39;;;;;;;13.90;9.50;;;;;;;13.78;78.98;97665.52;1562088;90;26547;-83
2022/08/30 07:01:09;;;;;;;15.95;9.50;;;;;;;13.89;78.81;97661.22;1562414;90;25839;-77
2022/08/30 07:03:36;;;;;;;14.65;9.70;;;;;;;13.96;78.71;97657.39;1586695;87;28713;-77
2022/08/30 07:06:03;;;;;;;13.60;9.45;;;;;;;14.06;78.98;97655.50;1606407;87;25801;-78
2022/08/30 07:08:30;;;;;;;10.63;8.38;;;;;;;14.17;79.03;97652.55;1606489;87;25849;-79
2022/08/30 07:10:56;;;;;;;10.55;8.33;;;;;;;14.28;78.97;97649.88;1606510;87;25820;-82
2022/08/30 07:13:23;;;;;;;13.80;8.43;;;;;;;14.40;78.93;97649.97;1606604;87;25878;-77
2022/08/30 07:15:51;;;;;;;13.53;8.40;;;;;;;14.51;79.02;97650.55;1606409;87;28164;-81
2022/08/30 07:21:10;;;;;;;15.13;9.45;;;;;;;14.74;78.67;97643.83;1642536;85;25839;-77
2022/08/30 07:23:37;;;;;;;16.57;8.60;;;;;;;14.88;78.54;97640.91;1608745;87;25825;-79
2022/08/30 07:26:07;;;;;;;14.53;8.85;;;;;;;15.04;78.33;97644.33;1615903;87;26444;-80
2022/08/30 07:28:37;;;;;;;10.63;8.28;;;;;;;15.20;78.50;97636.02;1622559;87;27402;-80
2022/08/30 07:31:06;;;;;;;11.63;8.48;;;;;;;15.35;78.36;97638.55;1609883;87;25823;-78
2022/08/30 07:33:32;;;;;;;14.55;9.03;;;;;;;15.51;78.36;97631.59;1607329;86;25846;-77
2022/08/30 07:35:59;;;;;;;13.62;8.88;;;;;;;15.70;78.12;97630.41;1607842;87;25746;-77
2022/08/30 07:38:27;;;;;;;9.95;8.38;;;;;;;15.96;78.05;97631.78;1608295;87;25834;-78
2022/08/30 07:40:53;;;;;;;12.28;8.30;;;;;;;16.31;77.70;97635.77;1606027;87;28109;-77
2022/08/30 07:43:20;;;;;;;11.40;7.90;;;;;;;16.71;77.30;97639.84;1610609;87;25973;-77
2022/08/30 07:45:47;;;;;;;15.95;8.80;;;;;;;17.09;76.49;97636.97;1655377;84;25773;-81
2022/08/30 07:48:14;;;;;;;13.25;7.53;;;;;;;17.48;76.35;97645.53;1690076;84;26053;-77
2022/08/30 07:50:45;;;;;;;12.30;8.03;;;;;;;17.97;75.80;97634.26;1689611;84;25751;-78
2022/08/30 07:53:12;;;;;;;12.03;8.23;;;;;;;18.43;74.90;97625.79;1689960;83;27470;-77
2022/08/30 07:55:39;;;;;;;13.70;8.05;;;;;;;18.83;74.16;97630.36;1689601;84;25794;-78
2022/08/30 07:58:06;;;;;;;8.33;6.85;;;;;;;19.20;73.65;97628.23;1689744;84;25818;-80
2022/08/30 08:00:32;;;;;;;11.03;6.97;;;;;;;19.84;72.29;97604.86;1689892;84;25707;-79
2022/08/30 08:03:06;;;;;;;9.90;6.97;;;;;;;19.84;72.29;97604.86;1692684;84;25811;-79
2022/08/30 08:05:39;;;;;;;10.60;6.75;;;;;;;20.31;72.23;97628.93;1632094;87;27466;-80
2022/08/30 08:08:05;;;;;;;9.40;5.60;;;;;;;20.58;71.33;97608.77;1635556;87;25573;-79
2022/08/30 08:10:33;;;;;;;8.80;6.12;;;;;;;21.11;70.62;97624.77;1631839;87;25858;-77
2022/08/30 08:12:59;;;;;;;7.65;5.25;;;;;;;21.54;69.96;97629.45;1635676;87;25761;-79
2022/08/30 08:15:27;;;;;;;8.03;5.12;;;;;;;21.70;68.22;97628.89;1632086;87;25804;-80
2022/08/30 08:17:54;;;;;;;8.98;5.70;;;;;;;22.02;68.19;97628.56;1635591;87;27379;-78
2022/08/30 08:20:21;;;;;;;6.80;4.45;;;;;;;22.44;67.46;97625.39;1650321;84;25885;-79
2022/08/30 08:22:48;;;;;;;5.62;3.90;;;;;;;22.84;66.60;97625.19;1689869;84;25852;-79
2022/08/30 08:25:15;;;;;;;5.97;3.90;;;;;;;23.21;65.84;97628.78;1689929;84;26056;-79
2022/08/30 08:27:42;;;;;;;7.00;3.85;;;;;;;23.58;64.76;97618.59;1688088;84;25812;-79
2022/08/30 08:30:10;;;;;;;10.18;5.50;;;;;;;23.91;63.56;97625.14;1689803;84;27345;-78
2022/08/30 08:32:36;;;;;;;6.95;4.30;;;;;;;24.21;62.77;97625.92;1689414;84;25741;-80
2022/08/30 08:35:03;;;;;;;6.47;3.85;;;;;;;24.49;61.93;97626.45;1679904;84;25742;-77
2022/08/30 08:37:30;;;;;;;9.08;3.75;;;;;;;24.65;60.52;97626.48;1681181;84;26338;-77
2022/08/30 08:39:57;;;;;;;6.75;3.85;;;;;;;24.78;60.49;97629.08;1689827;83;25940;-79
2022/08/30 08:42:56;;;;;;;5.45;3.40;;;;;;;24.87;59.45;97626.48;1689791;84;27226;-78
2022/08/30 08:45:48;;;;;;;6.80;3.37;;;;;;;25.00;58.93;97627.12;1687919;84;25720;-78
2022/08/30 08:48:29;;;;;;;6.00;3.30;;;;;;;24.64;57.79;97637.27;1676876;83;25848;-79
2022/08/30 08:53:46;;;;;;;7.10;3.42;;;;;;;24.46;57.00;97632.55;1689199;84;25926;-78
2022/08/30 08:56:15;;;;;;;;;;;;;;;24.60;57.22;97629.33;1670090;83;27379;-80
2022/08/30 08:58:50;;;;;;;6.62;3.45;;;;;;;24.91;55.20;97623.37;1689406;84;26548;-78
2022/08/30 09:01:21;;;;;;;6.12;3.58;;;;;;;25.21;56.53;97632.63;1697163;79;26693;-77
2022/08/30 09:03:49;;;;;;;5.60;3.80;;;;;;;25.52;55.40;97625.20;1794116;78;25679;-77
2022/08/30 09:06:57;;;;;;;6.62;3.42;;;;;;;25.55;55.18;97627.38;1742218;81;25962;-77
2022/08/30 09:09:35;;;;;;;5.40;3.70;;;;;;;25.58;54.07;97624.83;1727084;80;27605;-76
2022/08/30 09:12:03;;;;;;;5.45;3.33;;;;;;;25.51;54.35;97626.33;1733760;81;25233;-77
2022/08/30 09:14:38;;;;;;;4.90;3.12;;;;;;;25.66;54.31;97623.34;1723802;81;25718;-78
2022/08/30 09:17:11;;;;;;;8.28;3.50;;;;;;;25.82;54.23;97628.30;1731969;81;26605;-77
2022/08/30 09:19:52;;;;;;;6.35;3.87;;;;;;;25.98;53.59;97623.28;1729126;81;25697;-77
2022/08/30 09:22:38;;;;;;;4.63;3.57;;;;;;;26.02;53.17;97621.56;1635351;86;27621;-80
2022/08/30 09:25:10;;;;;;;5.78;3.30;;;;;;;26.02;52.82;97624.33;1623093;86;25811;-77
2022/08/30 09:27:41;;;;;;;4.50;3.25;;;;;;;25.87;51.87;97617.69;1598813;87;25856;-78
2022/08/30 09:30:18;;;;;;;5.28;3.30;;;;;;;25.91;52.33;97614.58;1603499;87;25827;-77
2022/08/30 09:33:06;;;;;;;3.65;2.77;;;;;;;25.91;51.40;97614.58;1614537;86;25912;-77
2022/08/30 09:35:44;;;;;;;7.03;3.65;;;;;;;25.99;51.75;97608.89;1554141;89;27428;-78
2022/08/30 09:38:28;;;;;;;5.53;3.35;;;;;;;26.26;51.65;97609.48;1580978;89;25818;-76
2022/08/30 09:40:59;;;;;;;6.83;3.10;;;;;;;26.37;50.67;97605.40;1517894;92;25862;-77
2022/08/30 09:43:34;;;;;;;5.58;3.12;;;;;;;26.41;49.85;97605.88;1539499;91;26557;-77
2022/08/30 09:46:06;;;;;;;4.70;3.50;;;;;;;26.54;49.96;97605.60;1539815;91;26462;-79
2022/08/30 09:48:38;;;;;;;6.45;2.87;;;;;;;26.77;49.79;97601.77;1543469;91;27484;-77
2022/08/30 09:51:33;;;;;;;5.65;2.95;;;;;;;26.95;49.10;97595.83;1528133;91;26219;-78
2022/08/30 09:54:25;;;;;;;4.35;2.77;;;;;;;27.02;49.04;97594.03;1521171;93;25843;-79
2022/08/30 09:57:10;;;;;;;4.05;2.90;;;;;;;27.18;48.59;97598.88;1453118;97;34961;-79
2022/08/30 10:00:03;;;;;;;4.10;2.83;;;;;;;27.28;48.27;97593.67;1403374;99;26029;-78
2022/08/30 10:03:00;;;;;;;4.10;2.72;;;;;;;27.39;48.00;97593.67;1416713;99;28152;-76
2022/08/30 10:06:17;;;;;;;5.10;2.60;;;;;;;27.33;47.28;97587.99;1422134;99;26018;-77
2022/08/30 10:09:04;;;;;;;5.40;2.83;;;;;;;27.23;47.17;97593.79;1424567;99;25963;-77
2022/08/30 10:11:54;;;;;;;3.33;2.45;;;;;;;27.14;47.31;97591.53;1425372;99;26498;-77
2022/08/30 10:14:47;;;;;;;6.15;2.70;;;;;;;27.18;47.25;97588.36;1423104;99;25913;-80
2022/08/30 10:17:47;;;;;;;5.35;2.62;;;;;;;27.38;47.53;97582.90;1422394;99;28234;-77
2022/08/30 10:20:19;;;;;;;3.05;2.42;;;;;;;27.62;47.28;97582.59;1425841;99;25421;-77
2022/08/30 10:23:15;;;;;;;3.98;2.75;;;;;;;27.30;47.19;97578.09;1427236;99;25970;-77
2022/08/30 10:25:55;;;;;;;8.00;3.12;;;;;;;27.03;47.08;97577.66;1409986;100;25839;-78
2022/08/30 10:28:30;;;;;;;6.40;2.90;;;;;;;26.77;46.93;97574.64;1389918;103;25907;-77
2022/08/30 10:31:07;;;;;;;4.33;2.80;;;;;;;26.32;46.68;97573.14;1378682;103;27538;-77
2022/08/30 10:33:46;;;;;;;6.25;2.80;;;;;;;26.12;46.84;97577.09;1340398;105;25988;-77
2022/08/30 10:36:15;;;;;;;4.67;2.70;;;;;;;26.37;46.66;97576.34;1360422;102;26089;-79
2022/08/30 10:38:49;;;;;;;5.12;2.50;;;;;;;26.64;46.12;97573.54;1407727;101;25903;-78
2022/08/30 10:41:38;;;;;;;5.37;2.65;;;;;;;26.87;45.38;97571.06;1411104;101;25922;-78
2022/08/30 10:44:22;;;;;;;6.10;2.83;;;;;;;26.86;46.16;97574.96;1411176;101;28315;-80
2022/08/30 10:47:03;;;;;;;3.85;2.55;;;;;;;27.03;46.67;97566.59;1411057;101;25877;-78
2022/08/30 10:49:35;;;;;;;5.00;2.77;;;;;;;27.15;46.51;97563.51;1408962;101;25862;-77
2022/08/30 10:52:22;;;;;;;3.62;3.02;;;;;;;27.23;46.34;97565.52;1408726;101;25907;-77
2022/08/30 10:55:12;;;;;;;4.72;2.72;;;;;;;27.28;45.67;97568.73;1440546;99;25866;-77
2022/08/30 10:57:39;;;;;;;5.08;2.80;;;;;;;27.13;45.55;97570.48;1482409;96;27459;-77
2022/08/30 11:00:11;;;;;;;5.78;2.85;;;;;;;27.05;45.28;97564.33;1488019;96;25824;-76
2022/08/30 11:03:01;;;;;;;3.85;3.00;;;;;;;27.11;44.96;97565.26;1396334;102;25914;-76
2022/08/30 11:05:46;;;;;;;3.75;2.87;;;;;;;27.03;44.91;97569.36;1371651;103;26175;-76
2022/08/30 11:08:46;;;;;;;6.70;3.30;;;;;;;27.10;44.85;97565.00;1385050;101;25999;-78
2022/08/30 11:11:20;;;;;;;5.95;3.20;;;;;;;26.96;44.73;97566.19;1396978;101;27467;-76
2022/08/30 11:13:48;;;;;;;6.05;3.30;;;;;;;26.79;44.88;97555.20;1377683;102;25934;-76
2022/08/30 11:16:18;;;;;;;4.85;2.85;;;;;;;26.74;45.08;97551.72;1376991;102;25905;-77
2022/08/30 11:18:51;;;;;;;3.87;2.10;;;;;;;26.79;45.55;97555.20;1378912;102;25896;-77
2022/08/30 11:21:38;;;;;;;4.45;2.67;;;;;;;26.81;44.81;97558.45;1377005;102;25918;-76
2022/08/30 11:24:12;;;;;;;4.20;2.55;;;;;;;26.65;44.56;97550.83;1394576;99;27537;-78
2022/08/30 11:26:57;;;;;;;3.77;2.75;;;;;;;26.15;43.88;97554.91;1427712;99;25938;-77
2022/08/30 11:29:40;;;;;;;3.60;2.30;;;;;;;25.91;44.94;97555.13;1430035;99;26043;-77
2022/08/30 11:32:17;;;;;;;4.35;2.55;;;;;;;25.91;44.84;97564.80;1431647;99;25822;-78
2022/08/30 11:34:51;;;;;;;5.12;2.72;;;;;;;25.79;44.47;97556.19;1427849;98;25850;-79
2022/08/30 11:37:43;;;;;;;5.67;3.40;;;;;;;25.82;44.78;97555.02;1435512;99;27532;-78
2022/08/30 11:40:25;;;;;;;4.78;2.70;;;;;;;26.01;45.37;97548.00;1437566;99;26687;-78
2022/08/30 11:42:54;;;;;;;8.03;3.20;;;;;;;26.20;45.94;97547.91;1436707;99;25910;-78
2022/08/30 11:45:34;;;;;;;7.35;3.20;;;;;;;26.23;46.10;97544.50;1436222;99;25806;-77
2022/08/30 11:48:04;;;;;;;7.10;3.12;;;;;;;26.12;46.72;97540.31;1433467;99;25852;-79
2022/08/30 11:50:41;;;;;;;6.85;3.02;;;;;;;26.27;46.71;97539.17;1445038;95;27454;-78